sensor_id;sensor_type;location;lat;lon;timestamp;P1;durP1;ratioP1;P2;durP2;ratioP2
11777;SDS011;5946;51.770;8.548;2024-03-22T00:01:49;54.37;;;34.63;;
11777;SDS011;5946;51.770;8.548;2024-03-22T00:04:15;52.00;;;34.80;;
11777;SDS011;5946;51.770;8.548;2024-03-22T00:06:42;54.73;;;34.33;;
11777;SDS011;5946;51.770;8.548;2024-03-22T00:09:08;51.00;;;33.53;;
11777;SDS011;5946;51.770;8.548;2024-03-22T00:11:34;50.40;;;33.03;;
11777;SDS011;5946;51.770;8.548;2024-03-22T00:14:01;51.53;;;34.20;;
11777;SDS011;5946;51.770;8.548;2024-03-22T00:16:27;50.50;;;33.90;;
11777;SDS011;5946;51.770;8.548;2024-03-22T00:18:53;50.23;;;33.23;;
11777;SDS011;5946;51.770;8.548;2024-03-22T00:21:19;54.07;;;34.37;;
11777;SDS011;5946;51.770;8.548;2024-03-22T00:23:45;51.33;;;34.33;;
11777;SDS011;5946;51.770;8.548;2024-03-22T00:26:11;49.03;;;32.60;;
11777;SDS011;5946;51.770;8.548;2024-03-22T00:28:37;54.17;;;35.20;;
11777;SDS011;5946;51.770;8.548;2024-03-22T00:31:03;51.57;;;33.73;;
11777;SDS011;5946;51.770;8.548;2024-03-22T00:33:29;51.60;;;33.87;;
11777;SDS011;5946;51.770;8.548;2024-03-22T00:35:56;48.97;;;33.23;;
11777;SDS011;5946;51.770;8.548;2024-03-22T00:38:22;49.57;;;32.93;;
11777;SDS011;5946;51.770;8.548;2024-03-22T00:40:48;49.50;;;33.43;;
11777;SDS011;5946;51.770;8.548;2024-03-22T00:43:14;53.63;;;34.13;;
11777;SDS011;5946;51.770;8.548;2024-03-22T00:45:40;51.63;;;33.30;;
11777;SDS011;5946;51.770;8.548;2024-03-22T00:48:06;48.83;;;31.70;;
11777;SDS011;5946;51.770;8.548;2024-03-22T00:50:32;46.07;;;33.00;;
11777;SDS011;5946;51.770;8.548;2024-03-22T00:52:58;50.07;;;33.60;;
11777;SDS011;5946;51.770;8.548;2024-03-22T00:55:24;45.87;;;30.77;;
11777;SDS011;5946;51.770;8.548;2024-03-22T00:57:50;50.30;;;32.07;;
11777;SDS011;5946;51.770;8.548;2024-03-22T01:00:16;49.37;;;31.90;;
11777;SDS011;5946;51.770;8.548;2024-03-22T01:02:43;46.90;;;32.83;;
11777;SDS011;5946;51.770;8.548;2024-03-22T01:05:10;52.07;;;32.43;;
11777;SDS011;5946;51.770;8.548;2024-03-22T01:07:36;52.30;;;33.30;;
11777;SDS011;5946;51.770;8.548;2024-03-22T01:10:03;49.87;;;32.33;;
11777;SDS011;5946;51.770;8.548;2024-03-22T01:12:29;49.60;;;31.77;;
11777;SDS011;5946;51.770;8.548;2024-03-22T01:14:56;48.17;;;31.93;;
11777;SDS011;5946;51.770;8.548;2024-03-22T01:17:21;47.63;;;31.10;;
11777;SDS011;5946;51.770;8.548;2024-03-22T01:19:47;50.70;;;33.23;;
11777;SDS011;5946;51.770;8.548;2024-03-22T01:22:13;51.93;;;32.83;;
11777;SDS011;5946;51.770;8.548;2024-03-22T01:24:39;53.00;;;33.17;;
11777;SDS011;5946;51.770;8.548;2024-03-22T01:27:05;52.27;;;32.90;;
11777;SDS011;5946;51.770;8.548;2024-03-22T01:29:31;53.30;;;33.90;;
11777;SDS011;5946;51.770;8.548;2024-03-22T01:31:57;53.93;;;33.83;;
11777;SDS011;5946;51.770;8.548;2024-03-22T01:34:24;59.67;;;34.03;;
11777;SDS011;5946;51.770;8.548;2024-03-22T01:36:51;52.40;;;32.97;;
11777;SDS011;5946;51.770;8.548;2024-03-22T01:39:18;54.30;;;33.47;;
11777;SDS011;5946;51.770;8.548;2024-03-22T01:41:46;53.67;;;32.37;;
11777;SDS011;5946;51.770;8.548;2024-03-22T01:44:12;57.60;;;35.07;;
11777;SDS011;5946;51.770;8.548;2024-03-22T01:46:39;52.30;;;32.93;;
11777;SDS011;5946;51.770;8.548;2024-03-22T01:49:05;53.63;;;33.57;;
11777;SDS011;5946;51.770;8.548;2024-03-22T01:51:31;56.80;;;34.83;;
11777;SDS011;5946;51.770;8.548;2024-03-22T01:53:57;51.07;;;32.70;;
11777;SDS011;5946;51.770;8.548;2024-03-22T01:56:24;52.47;;;33.27;;
11777;SDS011;5946;51.770;8.548;2024-03-22T01:58:50;51.97;;;32.33;;
11777;SDS011;5946;51.770;8.548;2024-03-22T02:01:16;57.27;;;33.70;;
11777;SDS011;5946;51.770;8.548;2024-03-22T02:03:42;55.70;;;32.90;;
11777;SDS011;5946;51.770;8.548;2024-03-22T02:06:08;53.97;;;32.70;;
11777;SDS011;5946;51.770;8.548;2024-03-22T02:08:34;54.50;;;34.03;;
11777;SDS011;5946;51.770;8.548;2024-03-22T02:11:01;58.20;;;34.10;;
11777;SDS011;5946;51.770;8.548;2024-03-22T02:13:27;52.37;;;32.60;;
11777;SDS011;5946;51.770;8.548;2024-03-22T02:15:53;53.47;;;33.23;;
11777;SDS011;5946;51.770;8.548;2024-03-22T02:18:19;56.83;;;33.90;;
11777;SDS011;5946;51.770;8.548;2024-03-22T02:20:45;54.67;;;33.07;;
11777;SDS011;5946;51.770;8.548;2024-03-22T02:23:10;51.97;;;32.17;;
11777;SDS011;5946;51.770;8.548;2024-03-22T02:25:36;54.57;;;32.43;;
11777;SDS011;5946;51.770;8.548;2024-03-22T02:28:02;52.97;;;32.83;;
11777;SDS011;5946;51.770;8.548;2024-03-22T02:30:28;51.67;;;32.60;;
11777;SDS011;5946;51.770;8.548;2024-03-22T02:32:54;52.53;;;31.70;;
11777;SDS011;5946;51.770;8.548;2024-03-22T02:35:20;54.80;;;32.33;;
11777;SDS011;5946;51.770;8.548;2024-03-22T02:37:46;53.30;;;30.97;;
11777;SDS011;5946;51.770;8.548;2024-03-22T02:40:12;61.07;;;33.77;;
11777;SDS011;5946;51.770;8.548;2024-03-22T02:42:38;48.37;;;30.93;;
11777;SDS011;5946;51.770;8.548;2024-03-22T02:45:04;52.83;;;32.27;;
11777;SDS011;5946;51.770;8.548;2024-03-22T02:47:30;55.00;;;31.80;;
11777;SDS011;5946;51.770;8.548;2024-03-22T02:49:56;54.60;;;30.83;;
11777;SDS011;5946;51.770;8.548;2024-03-22T02:52:22;52.60;;;32.03;;
11777;SDS011;5946;51.770;8.548;2024-03-22T02:54:48;53.93;;;31.63;;
11777;SDS011;5946;51.770;8.548;2024-03-22T02:57:14;53.67;;;30.73;;
11777;SDS011;5946;51.770;8.548;2024-03-22T02:59:40;50.40;;;31.13;;
11777;SDS011;5946;51.770;8.548;2024-03-22T03:02:06;51.73;;;31.10;;
11777;SDS011;5946;51.770;8.548;2024-03-22T03:04:32;53.17;;;31.90;;
11777;SDS011;5946;51.770;8.548;2024-03-22T03:06:58;56.40;;;32.13;;
11777;SDS011;5946;51.770;8.548;2024-03-22T03:09:24;54.63;;;32.53;;
11777;SDS011;5946;51.770;8.548;2024-03-22T03:11:50;52.80;;;30.67;;
11777;SDS011;5946;51.770;8.548;2024-03-22T03:14:16;54.87;;;30.60;;
11777;SDS011;5946;51.770;8.548;2024-03-22T03:16:42;54.03;;;30.50;;
11777;SDS011;5946;51.770;8.548;2024-03-22T03:19:08;51.40;;;30.00;;
11777;SDS011;5946;51.770;8.548;2024-03-22T03:21:34;54.70;;;31.77;;
11777;SDS011;5946;51.770;8.548;2024-03-22T03:24:00;50.77;;;28.80;;
11777;SDS011;5946;51.770;8.548;2024-03-22T03:26:26;52.63;;;30.50;;
11777;SDS011;5946;51.770;8.548;2024-03-22T03:28:52;49.23;;;29.43;;
11777;SDS011;5946;51.770;8.548;2024-03-22T03:31:20;46.33;;;28.10;;
11777;SDS011;5946;51.770;8.548;2024-03-22T03:33:46;52.30;;;29.87;;
11777;SDS011;5946;51.770;8.548;2024-03-22T03:36:12;53.23;;;29.77;;
11777;SDS011;5946;51.770;8.548;2024-03-22T03:38:38;51.23;;;29.27;;
11777;SDS011;5946;51.770;8.548;2024-03-22T03:41:03;47.57;;;28.10;;
11777;SDS011;5946;51.770;8.548;2024-03-22T03:43:29;48.00;;;28.47;;
11777;SDS011;5946;51.770;8.548;2024-03-22T03:45:55;51.87;;;29.07;;
11777;SDS011;5946;51.770;8.548;2024-03-22T03:48:21;51.47;;;28.60;;
11777;SDS011;5946;51.770;8.548;2024-03-22T03:50:51;47.10;;;27.53;;
11777;SDS011;5946;51.770;8.548;2024-03-22T03:53:17;57.80;;;28.97;;
11777;SDS011;5946;51.770;8.548;2024-03-22T03:55:43;50.17;;;28.77;;
11777;SDS011;5946;51.770;8.548;2024-03-22T03:58:09;50.03;;;28.43;;
11777;SDS011;5946;51.770;8.548;2024-03-22T04:00:35;50.33;;;28.33;;
11777;SDS011;5946;51.770;8.548;2024-03-22T04:03:01;52.50;;;28.20;;
11777;SDS011;5946;51.770;8.548;2024-03-22T04:05:27;44.10;;;26.93;;
11777;SDS011;5946;51.770;8.548;2024-03-22T04:07:53;50.10;;;27.87;;
11777;SDS011;5946;51.770;8.548;2024-03-22T04:10:19;48.40;;;27.77;;
11777;SDS011;5946;51.770;8.548;2024-03-22T04:12:45;51.97;;;28.47;;
11777;SDS011;5946;51.770;8.548;2024-03-22T04:15:11;50.67;;;28.30;;
11777;SDS011;5946;51.770;8.548;2024-03-22T04:17:37;53.13;;;28.40;;
11777;SDS011;5946;51.770;8.548;2024-03-22T04:20:03;47.50;;;26.87;;
11777;SDS011;5946;51.770;8.548;2024-03-22T04:22:29;49.90;;;27.27;;
11777;SDS011;5946;51.770;8.548;2024-03-22T04:24:55;44.03;;;24.90;;
11777;SDS011;5946;51.770;8.548;2024-03-22T04:27:21;40.57;;;24.07;;
11777;SDS011;5946;51.770;8.548;2024-03-22T04:29:47;42.87;;;24.87;;
11777;SDS011;5946;51.770;8.548;2024-03-22T04:32:13;43.33;;;25.70;;
11777;SDS011;5946;51.770;8.548;2024-03-22T04:34:42;38.80;;;24.27;;
11777;SDS011;5946;51.770;8.548;2024-03-22T04:37:08;39.50;;;22.77;;
11777;SDS011;5946;51.770;8.548;2024-03-22T04:39:38;39.20;;;24.00;;
11777;SDS011;5946;51.770;8.548;2024-03-22T04:42:04;44.23;;;24.77;;
11777;SDS011;5946;51.770;8.548;2024-03-22T04:44:30;41.77;;;24.47;;
11777;SDS011;5946;51.770;8.548;2024-03-22T04:46:55;40.23;;;23.80;;
11777;SDS011;5946;51.770;8.548;2024-03-22T04:49:21;41.63;;;24.07;;
11777;SDS011;5946;51.770;8.548;2024-03-22T04:51:47;43.13;;;23.30;;
11777;SDS011;5946;51.770;8.548;2024-03-22T04:54:14;41.93;;;22.87;;
11777;SDS011;5946;51.770;8.548;2024-03-22T04:56:40;45.00;;;23.87;;
11777;SDS011;5946;51.770;8.548;2024-03-22T04:59:06;40.80;;;23.40;;
11777;SDS011;5946;51.770;8.548;2024-03-22T05:01:32;38.73;;;22.67;;
11777;SDS011;5946;51.770;8.548;2024-03-22T05:03:57;36.20;;;21.93;;
11777;SDS011;5946;51.770;8.548;2024-03-22T05:06:23;41.53;;;22.43;;
11777;SDS011;5946;51.770;8.548;2024-03-22T05:08:49;40.63;;;22.67;;
11777;SDS011;5946;51.770;8.548;2024-03-22T05:11:15;38.10;;;21.10;;
11777;SDS011;5946;51.770;8.548;2024-03-22T05:13:41;38.43;;;21.67;;
11777;SDS011;5946;51.770;8.548;2024-03-22T05:16:07;38.60;;;21.23;;
11777;SDS011;5946;51.770;8.548;2024-03-22T05:18:33;33.20;;;20.37;;
11777;SDS011;5946;51.770;8.548;2024-03-22T05:20:59;35.97;;;21.10;;
11777;SDS011;5946;51.770;8.548;2024-03-22T05:23:25;38.07;;;20.33;;
11777;SDS011;5946;51.770;8.548;2024-03-22T05:25:51;34.47;;;20.53;;
11777;SDS011;5946;51.770;8.548;2024-03-22T05:28:17;34.40;;;20.53;;
11777;SDS011;5946;51.770;8.548;2024-03-22T05:30:43;35.53;;;20.80;;
11777;SDS011;5946;51.770;8.548;2024-03-22T05:33:09;35.83;;;20.50;;
11777;SDS011;5946;51.770;8.548;2024-03-22T05:35:35;37.73;;;20.97;;
11777;SDS011;5946;51.770;8.548;2024-03-22T05:38:00;33.83;;;21.07;;
11777;SDS011;5946;51.770;8.548;2024-03-22T05:40:26;36.37;;;19.03;;
11777;SDS011;5946;51.770;8.548;2024-03-22T05:42:52;35.80;;;20.33;;
11777;SDS011;5946;51.770;8.548;2024-03-22T05:45:18;31.23;;;19.40;;
11777;SDS011;5946;51.770;8.548;2024-03-22T05:47:44;37.27;;;21.00;;
11777;SDS011;5946;51.770;8.548;2024-03-22T05:50:11;31.40;;;19.43;;
11777;SDS011;5946;51.770;8.548;2024-03-22T05:52:39;33.03;;;19.20;;
11777;SDS011;5946;51.770;8.548;2024-03-22T05:55:05;31.77;;;19.80;;
11777;SDS011;5946;51.770;8.548;2024-03-22T05:57:31;33.40;;;19.60;;
11777;SDS011;5946;51.770;8.548;2024-03-22T05:59:57;33.87;;;18.90;;
11777;SDS011;5946;51.770;8.548;2024-03-22T06:02:23;33.93;;;18.00;;
11777;SDS011;5946;51.770;8.548;2024-03-22T06:04:49;31.90;;;17.77;;
11777;SDS011;5946;51.770;8.548;2024-03-22T06:07:15;33.60;;;18.93;;
11777;SDS011;5946;51.770;8.548;2024-03-22T06:09:42;30.03;;;19.00;;
11777;SDS011;5946;51.770;8.548;2024-03-22T06:12:12;31.70;;;17.87;;
11777;SDS011;5946;51.770;8.548;2024-03-22T06:14:38;31.37;;;19.27;;
11777;SDS011;5946;51.770;8.548;2024-03-22T06:17:04;29.17;;;18.63;;
11777;SDS011;5946;51.770;8.548;2024-03-22T06:19:30;30.70;;;18.37;;
11777;SDS011;5946;51.770;8.548;2024-03-22T06:21:56;30.70;;;18.87;;
11777;SDS011;5946;51.770;8.548;2024-03-22T06:24:22;31.97;;;18.93;;
11777;SDS011;5946;51.770;8.548;2024-03-22T06:26:48;26.97;;;18.20;;
11777;SDS011;5946;51.770;8.548;2024-03-22T06:29:15;31.43;;;18.90;;
11777;SDS011;5946;51.770;8.548;2024-03-22T06:31:44;31.37;;;18.40;;
11777;SDS011;5946;51.770;8.548;2024-03-22T06:34:10;32.73;;;19.67;;
11777;SDS011;5946;51.770;8.548;2024-03-22T06:36:36;30.13;;;18.87;;
11777;SDS011;5946;51.770;8.548;2024-03-22T06:39:02;29.80;;;19.40;;
11777;SDS011;5946;51.770;8.548;2024-03-22T06:41:31;33.30;;;18.83;;
11777;SDS011;5946;51.770;8.548;2024-03-22T06:43:57;36.10;;;19.53;;
11777;SDS011;5946;51.770;8.548;2024-03-22T06:46:23;28.13;;;18.60;;
11777;SDS011;5946;51.770;8.548;2024-03-22T06:48:49;28.13;;;18.27;;
11777;SDS011;5946;51.770;8.548;2024-03-22T06:51:15;29.23;;;19.93;;
11777;SDS011;5946;51.770;8.548;2024-03-22T06:53:41;27.10;;;18.80;;
11777;SDS011;5946;51.770;8.548;2024-03-22T06:56:07;32.33;;;18.97;;
11777;SDS011;5946;51.770;8.548;2024-03-22T06:58:35;30.67;;;19.13;;
11777;SDS011;5946;51.770;8.548;2024-03-22T07:01:02;29.77;;;20.03;;
11777;SDS011;5946;51.770;8.548;2024-03-22T07:03:27;29.27;;;18.67;;
11777;SDS011;5946;51.770;8.548;2024-03-22T07:05:54;31.13;;;17.90;;
11777;SDS011;5946;51.770;8.548;2024-03-22T07:08:20;27.57;;;18.37;;
11777;SDS011;5946;51.770;8.548;2024-03-22T07:10:46;29.10;;;18.23;;
11777;SDS011;5946;51.770;8.548;2024-03-22T07:13:12;30.13;;;18.93;;
11777;SDS011;5946;51.770;8.548;2024-03-22T07:15:38;30.57;;;19.03;;
11777;SDS011;5946;51.770;8.548;2024-03-22T07:18:04;29.23;;;18.00;;
11777;SDS011;5946;51.770;8.548;2024-03-22T07:20:31;27.93;;;18.07;;
11777;SDS011;5946;51.770;8.548;2024-03-22T07:22:57;30.33;;;17.80;;
11777;SDS011;5946;51.770;8.548;2024-03-22T07:25:23;27.37;;;17.80;;
11777;SDS011;5946;51.770;8.548;2024-03-22T07:27:48;26.27;;;17.70;;
11777;SDS011;5946;51.770;8.548;2024-03-22T07:30:15;31.73;;;18.00;;
11777;SDS011;5946;51.770;8.548;2024-03-22T07:32:40;30.07;;;17.97;;
11777;SDS011;5946;51.770;8.548;2024-03-22T07:35:06;28.53;;;17.50;;
11777;SDS011;5946;51.770;8.548;2024-03-22T07:37:33;28.60;;;17.70;;
11777;SDS011;5946;51.770;8.548;2024-03-22T07:40:00;27.67;;;17.57;;
11777;SDS011;5946;51.770;8.548;2024-03-22T07:42:26;23.43;;;16.57;;
11777;SDS011;5946;51.770;8.548;2024-03-22T07:44:52;26.43;;;17.23;;
11777;SDS011;5946;51.770;8.548;2024-03-22T07:47:18;22.97;;;16.33;;
11777;SDS011;5946;51.770;8.548;2024-03-22T07:49:44;21.47;;;14.50;;
11777;SDS011;5946;51.770;8.548;2024-03-22T07:52:10;24.00;;;15.40;;
11777;SDS011;5946;51.770;8.548;2024-03-22T07:54:36;23.50;;;15.03;;
11777;SDS011;5946;51.770;8.548;2024-03-22T07:57:02;19.73;;;14.63;;
11777;SDS011;5946;51.770;8.548;2024-03-22T07:59:29;21.33;;;14.33;;
11777;SDS011;5946;51.770;8.548;2024-03-22T08:01:55;22.33;;;14.27;;
11777;SDS011;5946;51.770;8.548;2024-03-22T08:04:22;20.43;;;13.27;;
11777;SDS011;5946;51.770;8.548;2024-03-22T08:06:49;21.27;;;14.00;;
11777;SDS011;5946;51.770;8.548;2024-03-22T08:09:16;20.50;;;13.40;;
11777;SDS011;5946;51.770;8.548;2024-03-22T08:11:43;19.53;;;13.87;;
11777;SDS011;5946;51.770;8.548;2024-03-22T08:14:09;16.83;;;12.57;;
11777;SDS011;5946;51.770;8.548;2024-03-22T08:16:35;18.37;;;12.40;;
11777;SDS011;5946;51.770;8.548;2024-03-22T08:19:01;17.53;;;11.73;;
11777;SDS011;5946;51.770;8.548;2024-03-22T08:21:27;17.73;;;11.47;;
11777;SDS011;5946;51.770;8.548;2024-03-22T08:23:53;14.50;;;10.93;;
11777;SDS011;5946;51.770;8.548;2024-03-22T08:26:19;17.73;;;11.97;;
11777;SDS011;5946;51.770;8.548;2024-03-22T08:28:46;13.60;;;10.40;;
11777;SDS011;5946;51.770;8.548;2024-03-22T08:31:12;15.33;;;10.67;;
11777;SDS011;5946;51.770;8.548;2024-03-22T08:33:38;14.07;;;10.40;;
11777;SDS011;5946;51.770;8.548;2024-03-22T08:36:04;14.63;;;10.57;;
11777;SDS011;5946;51.770;8.548;2024-03-22T08:38:30;15.97;;;11.13;;
11777;SDS011;5946;51.770;8.548;2024-03-22T08:40:55;18.57;;;11.43;;
11777;SDS011;5946;51.770;8.548;2024-03-22T08:43:21;18.03;;;11.03;;
11777;SDS011;5946;51.770;8.548;2024-03-22T08:45:50;29.67;;;12.07;;
11777;SDS011;5946;51.770;8.548;2024-03-22T08:48:16;16.27;;;11.30;;
11777;SDS011;5946;51.770;8.548;2024-03-22T08:50:42;15.60;;;10.93;;
11777;SDS011;5946;51.770;8.548;2024-03-22T08:53:08;17.53;;;11.33;;
11777;SDS011;5946;51.770;8.548;2024-03-22T08:55:34;15.37;;;11.37;;
11777;SDS011;5946;51.770;8.548;2024-03-22T08:58:00;20.17;;;12.20;;
11777;SDS011;5946;51.770;8.548;2024-03-22T09:00:26;19.30;;;11.47;;
11777;SDS011;5946;51.770;8.548;2024-03-22T09:02:52;20.67;;;11.23;;
11777;SDS011;5946;51.770;8.548;2024-03-22T09:05:18;15.47;;;11.87;;
11777;SDS011;5946;51.770;8.548;2024-03-22T09:07:44;16.30;;;11.93;;
11777;SDS011;5946;51.770;8.548;2024-03-22T09:10:10;13.77;;;10.73;;
11777;SDS011;5946;51.770;8.548;2024-03-22T09:12:37;14.73;;;11.90;;
11777;SDS011;5946;51.770;8.548;2024-03-22T09:15:03;21.67;;;12.80;;
11777;SDS011;5946;51.770;8.548;2024-03-22T09:17:29;19.87;;;11.97;;
11777;SDS011;5946;51.770;8.548;2024-03-22T09:19:55;21.63;;;12.53;;
11777;SDS011;5946;51.770;8.548;2024-03-22T09:22:21;16.90;;;12.23;;
11777;SDS011;5946;51.770;8.548;2024-03-22T09:24:47;17.80;;;12.93;;
11777;SDS011;5946;51.770;8.548;2024-03-22T09:27:13;16.30;;;12.10;;
11777;SDS011;5946;51.770;8.548;2024-03-22T09:29:39;17.23;;;12.30;;
11777;SDS011;5946;51.770;8.548;2024-03-22T09:32:05;19.40;;;12.20;;
11777;SDS011;5946;51.770;8.548;2024-03-22T09:34:30;19.47;;;12.60;;
11777;SDS011;5946;51.770;8.548;2024-03-22T09:36:57;19.27;;;12.67;;
11777;SDS011;5946;51.770;8.548;2024-03-22T09:39:22;18.93;;;12.00;;
11777;SDS011;5946;51.770;8.548;2024-03-22T09:41:49;21.53;;;14.57;;
11777;SDS011;5946;51.770;8.548;2024-03-22T09:44:17;24.63;;;16.83;;
11777;SDS011;5946;51.770;8.548;2024-03-22T09:46:44;20.40;;;13.53;;
11777;SDS011;5946;51.770;8.548;2024-03-22T09:49:12;17.77;;;12.10;;
11777;SDS011;5946;51.770;8.548;2024-03-22T09:51:41;17.77;;;11.50;;
11777;SDS011;5946;51.770;8.548;2024-03-22T09:54:08;20.10;;;12.20;;
11777;SDS011;5946;51.770;8.548;2024-03-22T09:56:34;17.50;;;11.87;;
11777;SDS011;5946;51.770;8.548;2024-03-22T09:59:01;20.00;;;11.73;;
11777;SDS011;5946;51.770;8.548;2024-03-22T10:01:28;16.80;;;10.70;;
11777;SDS011;5946;51.770;8.548;2024-03-22T10:03:54;23.37;;;10.80;;
11777;SDS011;5946;51.770;8.548;2024-03-22T10:06:20;12.90;;;9.70;;
11777;SDS011;5946;51.770;8.548;2024-03-22T10:08:46;15.30;;;9.70;;
11777;SDS011;5946;51.770;8.548;2024-03-22T10:11:12;13.03;;;9.53;;
11777;SDS011;5946;51.770;8.548;2024-03-22T10:13:38;16.80;;;10.00;;
11777;SDS011;5946;51.770;8.548;2024-03-22T10:16:04;16.90;;;9.90;;
11777;SDS011;5946;51.770;8.548;2024-03-22T10:18:33;16.07;;;10.67;;
11777;SDS011;5946;51.770;8.548;2024-03-22T10:21:05;16.93;;;10.50;;
11777;SDS011;5946;51.770;8.548;2024-03-22T10:23:32;14.37;;;10.60;;
11777;SDS011;5946;51.770;8.548;2024-03-22T10:26:01;16.53;;;11.07;;
11777;SDS011;5946;51.770;8.548;2024-03-22T10:28:27;16.20;;;10.53;;
11777;SDS011;5946;51.770;8.548;2024-03-22T10:30:53;15.17;;;11.03;;
11777;SDS011;5946;51.770;8.548;2024-03-22T10:33:20;17.03;;;11.17;;
11777;SDS011;5946;51.770;8.548;2024-03-22T10:35:51;18.23;;;11.30;;
11777;SDS011;5946;51.770;8.548;2024-03-22T10:38:21;16.10;;;11.40;;
11777;SDS011;5946;51.770;8.548;2024-03-22T10:40:47;16.47;;;12.07;;
11777;SDS011;5946;51.770;8.548;2024-03-22T10:43:14;16.83;;;12.73;;
11777;SDS011;5946;51.770;8.548;2024-03-22T10:45:40;19.50;;;12.33;;
11777;SDS011;5946;51.770;8.548;2024-03-22T10:48:10;16.43;;;11.60;;
11777;SDS011;5946;51.770;8.548;2024-03-22T10:50:40;18.63;;;12.17;;
11777;SDS011;5946;51.770;8.548;2024-03-22T10:53:14;18.33;;;12.60;;
11777;SDS011;5946;51.770;8.548;2024-03-22T10:55:42;19.87;;;12.53;;
11777;SDS011;5946;51.770;8.548;2024-03-22T10:58:15;23.40;;;12.93;;
11777;SDS011;5946;51.770;8.548;2024-03-22T11:00:42;18.13;;;12.47;;
11777;SDS011;5946;51.770;8.548;2024-03-22T11:03:09;16.97;;;12.40;;
11777;SDS011;5946;51.770;8.548;2024-03-22T11:05:44;17.17;;;13.07;;
11777;SDS011;5946;51.770;8.548;2024-03-22T11:08:10;18.20;;;13.30;;
11777;SDS011;5946;51.770;8.548;2024-03-22T11:10:36;18.30;;;13.27;;
11777;SDS011;5946;51.770;8.548;2024-03-22T11:13:03;16.70;;;13.17;;
11777;SDS011;5946;51.770;8.548;2024-03-22T11:15:29;20.33;;;13.63;;
11777;SDS011;5946;51.770;8.548;2024-03-22T11:17:59;20.47;;;14.03;;
11777;SDS011;5946;51.770;8.548;2024-03-22T11:20:25;17.70;;;13.80;;
11777;SDS011;5946;51.770;8.548;2024-03-22T11:22:51;25.63;;;15.03;;
11777;SDS011;5946;51.770;8.548;2024-03-22T11:25:18;20.20;;;14.03;;
11777;SDS011;5946;51.770;8.548;2024-03-22T11:27:44;21.57;;;13.73;;
11777;SDS011;5946;51.770;8.548;2024-03-22T11:30:10;21.23;;;14.73;;
11777;SDS011;5946;51.770;8.548;2024-03-22T11:32:36;20.77;;;14.00;;
11777;SDS011;5946;51.770;8.548;2024-03-22T11:35:09;21.40;;;15.00;;
11777;SDS011;5946;51.770;8.548;2024-03-22T11:37:36;18.90;;;14.10;;
11777;SDS011;5946;51.770;8.548;2024-03-22T11:40:02;22.13;;;15.53;;
11777;SDS011;5946;51.770;8.548;2024-03-22T11:42:30;21.03;;;13.73;;
11777;SDS011;5946;51.770;8.548;2024-03-22T11:44:56;20.17;;;13.70;;
11777;SDS011;5946;51.770;8.548;2024-03-22T11:47:23;18.00;;;12.87;;
11777;SDS011;5946;51.770;8.548;2024-03-22T11:49:49;17.00;;;13.90;;
11777;SDS011;5946;51.770;8.548;2024-03-22T11:52:15;21.70;;;15.23;;
11777;SDS011;5946;51.770;8.548;2024-03-22T11:54:41;19.23;;;14.40;;
11777;SDS011;5946;51.770;8.548;2024-03-22T11:57:08;17.93;;;14.00;;
11777;SDS011;5946;51.770;8.548;2024-03-22T11:59:34;20.50;;;15.20;;
11777;SDS011;5946;51.770;8.548;2024-03-22T12:02:01;17.97;;;14.03;;
11777;SDS011;5946;51.770;8.548;2024-03-22T12:04:27;22.80;;;14.73;;
11777;SDS011;5946;51.770;8.548;2024-03-22T12:06:52;21.93;;;13.70;;
11777;SDS011;5946;51.770;8.548;2024-03-22T12:09:22;21.90;;;13.57;;
11777;SDS011;5946;51.770;8.548;2024-03-22T12:11:48;17.63;;;13.90;;
11777;SDS011;5946;51.770;8.548;2024-03-22T12:14:14;20.47;;;15.00;;
11777;SDS011;5946;51.770;8.548;2024-03-22T12:16:40;16.63;;;13.33;;
11777;SDS011;5946;51.770;8.548;2024-03-22T12:19:06;19.47;;;13.50;;
11777;SDS011;5946;51.770;8.548;2024-03-22T12:21:32;18.17;;;13.77;;
11777;SDS011;5946;51.770;8.548;2024-03-22T12:23:58;21.43;;;13.83;;
11777;SDS011;5946;51.770;8.548;2024-03-22T12:26:24;20.23;;;13.30;;
11777;SDS011;5946;51.770;8.548;2024-03-22T12:28:50;17.83;;;12.80;;
11777;SDS011;5946;51.770;8.548;2024-03-22T12:31:16;18.50;;;13.03;;
11777;SDS011;5946;51.770;8.548;2024-03-22T12:33:43;20.80;;;14.03;;
11777;SDS011;5946;51.770;8.548;2024-03-22T12:36:09;18.40;;;13.23;;
11777;SDS011;5946;51.770;8.548;2024-03-22T12:38:35;19.17;;;13.27;;
11777;SDS011;5946;51.770;8.548;2024-03-22T12:41:01;41.20;;;16.20;;
11777;SDS011;5946;51.770;8.548;2024-03-22T12:43:27;21.40;;;13.63;;
11777;SDS011;5946;51.770;8.548;2024-03-22T12:45:53;18.90;;;13.53;;
11777;SDS011;5946;51.770;8.548;2024-03-22T12:48:19;18.77;;;13.17;;
11777;SDS011;5946;51.770;8.548;2024-03-22T12:50:45;20.40;;;13.10;;
11777;SDS011;5946;51.770;8.548;2024-03-22T12:53:11;17.00;;;12.83;;
11777;SDS011;5946;51.770;8.548;2024-03-22T12:55:37;19.33;;;13.20;;
11777;SDS011;5946;51.770;8.548;2024-03-22T12:58:03;47.37;;;31.33;;
11777;SDS011;5946;51.770;8.548;2024-03-22T13:00:29;20.13;;;13.80;;
11777;SDS011;5946;51.770;8.548;2024-03-22T13:02:55;19.67;;;13.93;;
11777;SDS011;5946;51.770;8.548;2024-03-22T13:05:21;20.97;;;14.40;;
11777;SDS011;5946;51.770;8.548;2024-03-22T13:07:47;19.87;;;15.10;;
11777;SDS011;5946;51.770;8.548;2024-03-22T13:10:13;23.17;;;16.20;;
11777;SDS011;5946;51.770;8.548;2024-03-22T13:12:39;19.43;;;15.50;;
11777;SDS011;5946;51.770;8.548;2024-03-22T13:15:05;20.97;;;15.90;;
11777;SDS011;5946;51.770;8.548;2024-03-22T13:17:31;23.10;;;15.97;;
11777;SDS011;5946;51.770;8.548;2024-03-22T13:19:57;21.43;;;16.17;;
11777;SDS011;5946;51.770;8.548;2024-03-22T13:22:24;23.90;;;16.90;;
11777;SDS011;5946;51.770;8.548;2024-03-22T13:24:50;24.43;;;17.17;;
11777;SDS011;5946;51.770;8.548;2024-03-22T13:27:16;23.13;;;17.40;;
11777;SDS011;5946;51.770;8.548;2024-03-22T13:29:43;26.77;;;18.50;;
11777;SDS011;5946;51.770;8.548;2024-03-22T13:32:09;23.03;;;16.90;;
11777;SDS011;5946;51.770;8.548;2024-03-22T13:34:35;23.30;;;17.60;;
11777;SDS011;5946;51.770;8.548;2024-03-22T13:37:02;27.70;;;17.80;;
11777;SDS011;5946;51.770;8.548;2024-03-22T13:39:28;25.17;;;18.93;;
11777;SDS011;5946;51.770;8.548;2024-03-22T13:41:55;28.43;;;19.10;;
11777;SDS011;5946;51.770;8.548;2024-03-22T13:44:20;27.30;;;18.90;;
11777;SDS011;5946;51.770;8.548;2024-03-22T13:46:46;28.50;;;20.33;;
11777;SDS011;5946;51.770;8.548;2024-03-22T13:49:14;28.40;;;21.40;;
11777;SDS011;5946;51.770;8.548;2024-03-22T13:51:41;29.47;;;21.27;;
11777;SDS011;5946;51.770;8.548;2024-03-22T13:54:07;28.83;;;20.83;;
11777;SDS011;5946;51.770;8.548;2024-03-22T13:56:33;27.27;;;20.67;;
11777;SDS011;5946;51.770;8.548;2024-03-22T13:58:59;29.67;;;22.17;;
11777;SDS011;5946;51.770;8.548;2024-03-22T14:01:25;34.87;;;23.00;;
11777;SDS011;5946;51.770;8.548;2024-03-22T14:03:52;31.23;;;22.63;;
11777;SDS011;5946;51.770;8.548;2024-03-22T14:06:18;30.37;;;22.13;;
11777;SDS011;5946;51.770;8.548;2024-03-22T14:08:44;29.50;;;21.77;;
11777;SDS011;5946;51.770;8.548;2024-03-22T14:11:10;27.60;;;21.67;;
11777;SDS011;5946;51.770;8.548;2024-03-22T14:13:36;28.67;;;21.57;;
11777;SDS011;5946;51.770;8.548;2024-03-22T14:16:01;30.27;;;21.70;;
11777;SDS011;5946;51.770;8.548;2024-03-22T14:18:27;30.07;;;22.93;;
11777;SDS011;5946;51.770;8.548;2024-03-22T14:20:53;31.53;;;22.23;;
11777;SDS011;5946;51.770;8.548;2024-03-22T14:23:19;32.30;;;21.83;;
11777;SDS011;5946;51.770;8.548;2024-03-22T14:25:46;27.97;;;21.23;;
11777;SDS011;5946;51.770;8.548;2024-03-22T14:28:13;28.93;;;22.20;;
11777;SDS011;5946;51.770;8.548;2024-03-22T14:30:39;29.87;;;21.57;;